Catskill, NY (12414)

4:59 PM EDT on September 18, 2014 (GMT -0400)
Catskill, NY.Route 23A | Change Station
CLOSE
Current Station
Personal Weather Station
Location: Catskill, NY
Elevation: 312 ft
Nearby Weather Stations

Elev 312 ft 42.20 °N, 73.95 °W | Updated 3 minutes ago

Partly Cloudy
Partly Cloudy
71.8 °F
Feels Like 77 °F
N
4.2
Wind Variable Wind from WNW

Today
High -- | Low -- °F
--% Chance of Precip.
Yesterday
High -- | Low -- °F
Precip. -- in
6:38 AM 7:00 PM
Waning Crescent, 24% visible
Pressure 29.99 in
Visibility 10.0 miles
Clouds Few 4300 ft
Few 5500 ft
Heat Index 77 °F
Dew Point 53 °F
Humidity 52%
Rainfall 0.00 in
Snow Depth Not available.
UV 2 out of 12
Pollen 2.90 out of 12
PM2.5 Good
Flu Activity Not available.
METAR KPSF 182054Z AUTO 34009KT 10SM FEW043 FEW055 18/10 A3001 RMK AO2 SLP153 T01780100 53005

More Conditions Fewer Conditions

Pressure 29.99 in
Visibility 10.0 miles
Clouds Few 4300 ft
Few 5500 ft
Heat Index 77 °F
Dew Point 53 °F
Humidity 52%
Rainfall 0.00 in
Snow Depth Not available.
UV 2 out of 12
Pollen 2.90 out of 12
PM2.5 Good
Flu Activity Not available.
METAR KPSF 182054Z AUTO 34009KT 10SM FEW043 FEW055 18/10 A3001 RMK AO2 SLP153 T01780100 53005

More Conditions Fewer Conditions

10-Day Weather Forecast

Almanac

Astronomy

Sep. 18, 2014 Rise Set
Actual Time 6:38 AM EDT 7:00 PM EDT
Civil Twilight 6:10 AM EDT 7:28 PM EDT
Nautical Twilight 5:37 AM EDT 8:01 PM EDT
Astronomical Twilight 5:03 AM EDT 8:34 PM EDT
Moon 1:24 AM EDT 3:53 PM EDT
Length of Visible Light 13h 17m
Length of Day
12h 21m
Tomorrow will be 2m 49s shorter.
Waning Crescent, 24% of the Moon is Illuminated
Today
Waning Crescent
Sep 24
New
Oct 1
First Quarter
Oct 8
Full
Oct 15
Last Quarter

Today's Extremes

State Highs State Lows

Community

WunderPhotos

Upload Photos

1,754,430 photos uploaded!

WunderBlogs® & News

By Dr. Jeff Masters
Director of Meteorology, Weather Underground
By Kari Strenfel
Meteorologist, Weather Underground
By Christopher C. Burt
Weather Historian, Weather Underground
September 18, 2014
September 18, 2014
September 18, 2014

Nearby

Air Quality

  Air Quality AQ Index Pollutant
Yesterday Good
OZONE
Yesterday Good
PM2.5
Current Good
PM2.5
Thursday Good
OZONE
Thursday Good
PM2.5
Friday Good
OZONE
Friday Good
PM2.5

Snow Depth

Station Depth Elevation
No new snow has been reported.

Earthquake Activity

City Distance Mag. Time & Date
No recent earthquake activity has been reported nearby.
Minimum magnitude displayed is 2.5.

Coastal Water Temperatures

Place Temperature
No Stations Reporting

Nearby Weather Stations